createdAt,value
2017-09-28T00:02:16.820Z,34.43
2017-09-28T00:04:44.286Z,34.80
2017-09-28T00:07:11.751Z,34.43
2017-09-28T00:09:39.239Z,34.60
2017-09-28T00:12:06.696Z,32.33
2017-09-28T00:14:34.171Z,36.20
2017-09-28T00:17:01.663Z,35.17
2017-09-28T00:19:29.143Z,33.53
2017-09-28T00:21:56.628Z,35.57
2017-09-28T00:24:24.137Z,35.40
2017-09-28T00:26:51.591Z,35.73
2017-09-28T00:29:19.046Z,36.03
2017-09-28T00:31:46.550Z,35.63
2017-09-28T00:34:14.005Z,37.10
2017-09-28T00:36:41.474Z,36.97
2017-09-28T00:39:08.954Z,37.50
2017-09-28T00:41:36.421Z,40.77
2017-09-28T00:44:03.882Z,42.27
2017-09-28T00:46:31.373Z,43.87
2017-09-28T00:48:58.842Z,51.87
2017-09-28T00:51:26.313Z,55.37
2017-09-28T00:53:53.806Z,53.80
2017-09-28T00:56:21.290Z,46.83
2017-09-28T00:58:48.754Z,45.77
2017-09-28T01:01:16.243Z,49.17
2017-09-28T01:03:43.726Z,40.00
2017-09-28T01:06:11.186Z,41.07
2017-09-28T01:08:38.686Z,37.73
2017-09-28T01:11:06.146Z,40.30
2017-09-28T01:13:33.607Z,39.27
2017-09-28T01:16:01.086Z,38.00
2017-09-28T01:18:28.546Z,37.90
2017-09-28T01:20:56.018Z,37.30
2017-09-28T01:23:23.499Z,36.90
2017-09-28T01:25:50.970Z,35.83
2017-09-28T01:28:18.443Z,35.30
2017-09-28T01:30:45.930Z,33.70
2017-09-28T01:33:13.399Z,34.57
2017-09-28T01:35:40.863Z,34.63
2017-09-28T01:38:08.359Z,33.23
2017-09-28T01:40:35.820Z,31.63
2017-09-28T01:43:03.278Z,33.77
2017-09-28T01:45:30.762Z,34.33
2017-09-28T01:47:58.234Z,33.90
2017-09-28T01:50:25.706Z,34.27
2017-09-28T01:52:53.227Z,35.03
2017-09-28T01:55:20.692Z,32.33
2017-09-28T01:57:48.150Z,33.77
2017-09-28T02:00:15.622Z,36.37
2017-09-28T02:02:43.085Z,34.40
2017-09-28T02:05:10.574Z,34.27
2017-09-28T02:07:38.047Z,34.90
2017-09-28T02:10:05.506Z,35.70
2017-09-28T02:12:32.989Z,37.80
2017-09-28T02:15:00.450Z,35.27
2017-09-28T02:17:27.935Z,33.73
2017-09-28T02:19:55.427Z,36.93
2017-09-28T02:22:22.891Z,36.10
2017-09-28T02:24:50.374Z,38.93
2017-09-28T02:27:17.862Z,36.27
2017-09-28T02:29:45.324Z,35.57
2017-09-28T02:32:12.802Z,33.60
2017-09-28T02:34:40.280Z,36.83
2017-09-28T02:37:07.750Z,38.03
2017-09-28T02:39:35.233Z,37.87
2017-09-28T02:42:02.695Z,37.97
2017-09-28T02:44:30.156Z,36.53
2017-09-28T02:46:57.642Z,38.43
2017-09-28T02:49:25.108Z,34.90
2017-09-28T02:51:52.624Z,35.43
2017-09-28T02:54:20.107Z,38.50
2017-09-28T02:56:47.570Z,37.00
2017-09-28T02:59:15.070Z,37.03
2017-09-28T03:01:42.528Z,38.57
2017-09-28T03:04:09.998Z,38.10
2017-09-28T03:06:37.482Z,37.30
2017-09-28T03:09:04.943Z,38.43
2017-09-28T03:11:32.424Z,37.00
2017-09-28T03:13:59.890Z,36.63
2017-09-28T03:16:27.350Z,35.87
2017-09-28T03:18:54.830Z,38.80
2017-09-28T03:21:22.297Z,37.40
2017-09-28T03:23:49.762Z,36.87
2017-09-28T03:26:17.248Z,36.23
2017-09-28T03:28:44.712Z,36.30
2017-09-28T03:31:12.178Z,36.50
2017-09-28T03:33:39.662Z,36.00
2017-09-28T03:36:07.116Z,39.90
2017-09-28T03:38:34.597Z,39.60
2017-09-28T03:41:02.074Z,38.43
2017-09-28T03:43:29.528Z,38.37
2017-09-28T03:45:57.010Z,39.93
2017-09-28T03:48:24.466Z,39.93
2017-09-28T03:50:51.934Z,40.00
2017-09-28T03:53:19.423Z,39.10
2017-09-28T03:55:46.902Z,38.00
2017-09-28T03:58:14.382Z,40.07
2017-09-28T04:00:41.852Z,38.07
2017-09-28T04:03:09.276Z,39.27
2017-09-28T04:05:36.786Z,40.70
2017-09-28T04:08:04.255Z,38.80
2017-09-28T04:10:31.714Z,40.10
2017-09-28T04:12:59.195Z,40.07
2017-09-28T04:15:26.654Z,41.00
2017-09-28T04:17:54.165Z,38.20
2017-09-28T04:20:21.630Z,37.53
2017-09-28T04:22:49.095Z,37.17
2017-09-28T04:25:16.591Z,37.80
2017-09-28T04:27:44.050Z,38.63
2017-09-28T04:30:11.506Z,39.30
2017-09-28T04:32:38.991Z,42.53
2017-09-28T04:35:06.446Z,38.33
2017-09-28T04:37:33.898Z,38.43
2017-09-28T04:40:01.375Z,38.13
2017-09-28T04:42:28.834Z,38.70
2017-09-28T04:44:56.294Z,40.07
2017-09-28T04:47:23.783Z,36.93
2017-09-28T04:49:51.239Z,37.13
2017-09-28T04:52:18.694Z,36.73
2017-09-28T04:54:46.177Z,35.73
2017-09-28T04:57:13.647Z,37.00
2017-09-28T04:59:41.131Z,37.70
2017-09-28T05:02:08.587Z,37.40
2017-09-28T05:04:36.038Z,37.30
2017-09-28T05:07:03.518Z,38.20
2017-09-28T05:09:30.978Z,37.63
2017-09-28T05:11:58.470Z,38.47
2017-09-28T05:14:26.006Z,36.20
2017-09-28T05:16:53.555Z,37.77
2017-09-28T05:19:21.067Z,39.00
2017-09-28T05:21:48.550Z,39.87
2017-09-28T05:24:19.811Z,37.47
2017-09-28T05:26:47.274Z,36.27
2017-09-28T05:29:14.754Z,36.90
2017-09-28T05:31:42.210Z,36.10
2017-09-28T05:34:09.666Z,36.70
2017-09-28T05:36:37.138Z,36.20
2017-09-28T05:39:04.589Z,36.60
2017-09-28T05:41:32.074Z,35.47
2017-09-28T05:43:59.555Z,37.23
2017-09-28T05:46:27.009Z,35.70
2017-09-28T05:48:54.486Z,34.90
2017-09-28T05:51:21.942Z,37.67
2017-09-28T05:53:49.422Z,35.60
2017-09-28T05:56:16.898Z,35.80
2017-09-28T05:58:44.354Z,33.27
2017-09-28T06:01:11.835Z,37.33
2017-09-28T06:03:39.299Z,34.60
2017-09-28T06:06:06.778Z,33.20
2017-09-28T06:08:34.237Z,35.10
2017-09-28T06:11:01.695Z,35.33
2017-09-28T06:13:29.181Z,34.53
2017-09-28T06:15:56.638Z,36.50
2017-09-28T06:18:24.094Z,36.27
2017-09-28T06:20:51.566Z,35.40
2017-09-28T06:23:19.052Z,36.13
2017-09-28T06:25:46.511Z,35.23
2017-09-28T06:28:13.974Z,38.00
2017-09-28T06:30:41.455Z,35.30
2017-09-28T06:33:08.928Z,36.90
2017-09-28T06:35:36.381Z,36.33
2017-09-28T06:38:03.862Z,35.70
2017-09-28T06:40:31.317Z,34.30
2017-09-28T06:42:58.770Z,34.80
2017-09-28T06:45:26.247Z,32.93
2017-09-28T06:47:53.707Z,33.17
2017-09-28T06:50:21.266Z,32.83
2017-09-28T06:52:48.737Z,32.90
2017-09-28T06:55:16.218Z,33.17
2017-09-28T06:57:43.674Z,31.90
2017-09-28T07:00:11.130Z,34.40
2017-09-28T07:02:38.609Z,32.60
2017-09-28T07:05:06.079Z,33.23
2017-09-28T07:07:33.543Z,31.20
2017-09-28T07:10:01.026Z,33.10
2017-09-28T07:12:28.478Z,31.13
2017-09-28T07:14:55.934Z,31.90
2017-09-28T07:17:23.426Z,31.50
2017-09-28T07:19:50.882Z,32.43
2017-09-28T07:22:18.335Z,31.93
2017-09-28T07:24:45.805Z,30.63
2017-09-28T07:27:13.266Z,31.03
2017-09-28T07:29:40.746Z,31.23
2017-09-28T07:32:08.243Z,28.97
2017-09-28T07:34:35.706Z,29.73
2017-09-28T07:37:03.181Z,31.00
2017-09-28T07:39:30.633Z,31.23
2017-09-28T07:41:58.110Z,31.07
2017-09-28T07:44:25.582Z,32.63
2017-09-28T07:46:53.041Z,31.63
2017-09-28T07:49:20.572Z,29.67
2017-09-28T07:51:48.035Z,30.20
2017-09-28T07:54:15.496Z,29.80
2017-09-28T07:56:42.990Z,31.80
2017-09-28T07:59:10.455Z,32.40
2017-09-28T08:01:37.911Z,33.53
2017-09-28T08:04:05.392Z,30.90
2017-09-28T08:06:32.846Z,29.33
2017-09-28T08:09:00.326Z,28.60
2017-09-28T08:11:27.782Z,30.70
2017-09-28T08:13:55.238Z,28.90
2017-09-28T08:16:22.714Z,29.50
2017-09-28T08:18:50.175Z,29.87
2017-09-28T08:21:17.653Z,30.63
2017-09-28T08:23:45.126Z,29.17
2017-09-28T08:26:12.613Z,29.97
2017-09-28T08:28:40.106Z,26.93
2017-09-28T08:31:07.575Z,29.20
2017-09-28T08:33:35.042Z,29.30
2017-09-28T08:36:02.518Z,30.20
2017-09-28T08:38:29.970Z,28.80
2017-09-28T08:40:57.426Z,31.50
2017-09-28T08:43:24.907Z,29.90
2017-09-28T08:45:52.369Z,28.43
2017-09-28T08:48:19.835Z,30.80
2017-09-28T08:50:47.315Z,28.97
2017-09-28T08:53:14.776Z,27.70
2017-09-28T08:55:42.232Z,30.70
2017-09-28T08:58:09.705Z,26.73
2017-09-28T09:00:37.182Z,29.60
2017-09-28T09:03:04.646Z,27.83
2017-09-28T09:05:32.131Z,28.97
2017-09-28T09:07:59.590Z,28.73
2017-09-28T09:10:27.045Z,28.20
2017-09-28T09:12:54.521Z,26.50
2017-09-28T09:15:21.986Z,27.50
2017-09-28T09:17:49.469Z,28.80
2017-09-28T09:20:16.922Z,28.90
2017-09-28T09:22:44.378Z,29.83
2017-09-28T09:25:11.857Z,29.40
2017-09-28T09:27:39.310Z,27.43
2017-09-28T09:30:06.766Z,31.03
2017-09-28T09:32:34.265Z,30.10
2017-09-28T09:35:01.722Z,29.53
2017-09-28T09:37:29.198Z,28.80
2017-09-28T09:39:56.657Z,29.27
2017-09-28T09:42:24.130Z,26.97
2017-09-28T09:44:51.618Z,25.37
2017-09-28T09:47:19.073Z,27.10
2017-09-28T09:49:46.527Z,25.93
2017-09-28T09:52:14.003Z,26.10
2017-09-28T09:54:41.458Z,24.80
2017-09-28T09:57:08.939Z,25.00
2017-09-28T09:59:36.403Z,22.77
2017-09-28T10:02:03.857Z,24.87
2017-09-28T10:04:31.329Z,24.60
2017-09-28T10:07:03.484Z,24.70
2017-09-28T10:09:33.077Z,23.93
2017-09-28T10:12:16.198Z,22.87
2017-09-28T10:14:45.494Z,22.07
2017-09-28T10:17:12.954Z,22.80
2017-09-28T10:19:40.432Z,23.37
2017-09-28T10:22:07.895Z,24.20
2017-09-28T10:24:35.351Z,23.83
2017-09-28T10:27:02.833Z,23.40
2017-09-28T10:29:30.289Z,23.33
2017-09-28T10:31:57.774Z,23.27
2017-09-28T10:34:25.229Z,24.40
2017-09-28T10:36:52.694Z,24.83
2017-09-28T10:39:20.178Z,23.40
2017-09-28T10:41:47.668Z,25.00
2017-09-28T10:44:15.126Z,23.53
2017-09-28T10:46:42.582Z,22.57
2017-09-28T10:49:10.074Z,23.97
2017-09-28T10:51:37.539Z,21.93
2017-09-28T10:54:04.994Z,21.40
2017-09-28T10:56:32.469Z,21.90
2017-09-28T10:58:59.971Z,19.90
2017-09-28T11:01:27.488Z,20.50
2017-09-28T11:03:54.959Z,21.10
2017-09-28T11:06:22.448Z,20.10
2017-09-28T11:08:49.915Z,22.27
2017-09-28T11:11:17.370Z,21.77
2017-09-28T11:13:44.933Z,21.40
2017-09-28T11:16:12.389Z,20.30
2017-09-28T11:18:39.870Z,20.20
2017-09-28T11:21:07.350Z,22.07
2017-09-28T11:23:34.830Z,22.40
2017-09-28T11:26:02.293Z,21.97
2017-09-28T11:28:29.766Z,19.33
2017-09-28T11:30:57.243Z,18.93
2017-09-28T11:33:24.702Z,19.17
2017-09-28T11:35:52.154Z,19.93
2017-09-28T11:38:19.647Z,19.03
2017-09-28T11:40:47.106Z,18.00
2017-09-28T11:43:14.565Z,19.53
2017-09-28T11:45:42.053Z,18.27
2017-09-28T11:48:09.505Z,18.53
2017-09-28T11:50:36.958Z,20.80
2017-09-28T11:53:04.443Z,18.83
2017-09-28T11:55:31.902Z,17.80
2017-09-28T11:57:59.382Z,18.50
2017-09-28T12:00:26.838Z,18.87
2017-09-28T12:02:54.297Z,18.30
2017-09-28T12:05:21.774Z,19.07
2017-09-28T12:07:49.361Z,17.87
2017-09-28T12:10:16.818Z,18.23
2017-09-28T12:12:44.299Z,17.77
2017-09-28T12:15:11.758Z,15.13
2017-09-28T12:17:39.214Z,16.70
2017-09-28T12:20:06.703Z,15.50
2017-09-28T12:22:34.158Z,16.63
2017-09-28T12:25:01.638Z,16.40
2017-09-28T12:27:29.127Z,16.37
2017-09-28T12:29:56.610Z,15.80
2017-09-28T12:32:24.074Z,16.30
2017-09-28T12:34:51.558Z,16.13
2017-09-28T12:37:19.064Z,16.13
2017-09-28T12:39:46.546Z,17.00
2017-09-28T12:42:14.001Z,17.17
2017-09-28T12:44:41.462Z,15.83
2017-09-28T12:47:08.945Z,16.90
2017-09-28T12:49:36.434Z,15.90
2017-09-28T12:52:03.910Z,15.83
2017-09-28T12:54:31.370Z,15.90
2017-09-28T12:56:58.846Z,15.10
2017-09-28T12:59:26.298Z,15.63
2017-09-28T13:01:53.770Z,17.83
2017-09-28T13:04:21.259Z,15.90
2017-09-28T13:06:48.731Z,15.37
2017-09-28T13:09:16.182Z,14.37
2017-09-28T13:11:43.658Z,14.50
2017-09-28T13:14:11.121Z,13.53
2017-09-28T13:16:38.590Z,16.53
2017-09-28T13:19:06.067Z,16.63
2017-09-28T13:21:33.522Z,14.67
2017-09-28T13:24:01.007Z,13.70
2017-09-28T13:26:28.522Z,14.30
2017-09-28T13:28:56.012Z,13.50
2017-09-28T13:31:23.490Z,13.80
2017-09-28T13:33:50.982Z,15.50
2017-09-28T13:36:19.307Z,14.70
2017-09-28T13:38:46.803Z,14.70
2017-09-28T13:41:14.360Z,16.10
2017-09-28T13:43:41.887Z,15.60
2017-09-28T13:46:09.431Z,12.43
2017-09-28T13:48:36.930Z,12.80
2017-09-28T13:51:04.407Z,12.90
2017-09-28T13:53:31.891Z,12.00
2017-09-28T13:55:59.356Z,12.03
2017-09-28T13:58:26.812Z,11.50
2017-09-28T14:00:54.283Z,11.67
2017-09-28T14:03:21.738Z,11.60
2017-09-28T14:05:49.222Z,12.50
2017-09-28T14:08:16.682Z,11.97
2017-09-28T14:10:44.186Z,11.27
2017-09-28T14:13:11.664Z,10.93
2017-09-28T14:15:39.123Z,11.07
2017-09-28T14:18:06.606Z,11.40
2017-09-28T14:20:34.107Z,11.33
2017-09-28T14:23:01.564Z,11.30
2017-09-28T14:25:29.046Z,10.40
2017-09-28T14:27:56.526Z,10.23
2017-09-28T14:30:24.012Z,11.43
2017-09-28T14:32:51.491Z,10.70
2017-09-28T14:35:18.949Z,11.67
2017-09-28T14:37:46.406Z,10.87
2017-09-28T14:40:13.878Z,11.57
2017-09-28T14:42:41.336Z,11.53
2017-09-28T14:45:08.814Z,11.50
2017-09-28T14:47:36.270Z,11.23
2017-09-28T14:50:03.815Z,11.03
2017-09-28T14:52:31.294Z,10.57
2017-09-28T14:54:58.754Z,11.60
2017-09-28T14:57:26.216Z,11.43
2017-09-28T14:59:53.701Z,12.57
2017-09-28T15:02:21.158Z,12.60
2017-09-28T15:04:48.622Z,13.23
2017-09-28T15:07:16.098Z,14.47
2017-09-28T15:09:43.555Z,14.77
2017-09-28T15:12:11.039Z,14.70
2017-09-28T15:14:38.514Z,13.27
2017-09-28T15:17:05.976Z,12.27
2017-09-28T15:19:33.459Z,11.53
2017-09-28T15:22:00.918Z,11.73
2017-09-28T15:24:28.384Z,10.80
2017-09-28T15:26:55.863Z,13.27
2017-09-28T15:29:23.321Z,11.70
2017-09-28T15:31:50.815Z,13.10
2017-09-28T15:34:18.299Z,13.77
2017-09-28T15:36:45.766Z,12.83
2017-09-28T15:39:13.250Z,12.57
2017-09-28T15:41:40.709Z,12.70
2017-09-28T15:44:08.163Z,13.40
2017-09-28T15:46:35.646Z,11.70
2017-09-28T15:49:03.098Z,12.60
2017-09-28T15:51:30.554Z,12.60
2017-09-28T15:53:58.034Z,11.87
2017-09-28T15:56:25.502Z,12.90
2017-09-28T15:58:52.961Z,12.70
2017-09-28T16:01:20.442Z,12.60
2017-09-28T16:03:47.894Z,12.20
2017-09-28T16:06:15.374Z,13.57
2017-09-28T16:08:42.830Z,12.97
2017-09-28T16:11:10.286Z,12.47
2017-09-28T16:13:37.763Z,12.20
2017-09-28T16:16:05.223Z,12.47
2017-09-28T16:18:32.686Z,12.27
2017-09-28T16:21:00.178Z,12.50
2017-09-28T16:23:27.639Z,12.73
2017-09-28T16:25:55.122Z,12.70
2017-09-28T16:28:22.582Z,13.10
2017-09-28T16:30:50.042Z,15.00
2017-09-28T16:33:17.526Z,14.63
2017-09-28T16:35:44.992Z,36.00
2017-09-28T16:38:12.459Z,16.53
2017-09-28T16:40:39.956Z,16.90
2017-09-28T16:43:07.414Z,37.63
2017-09-28T16:45:35.302Z,20.60
2017-09-28T16:48:03.450Z,15.43
2017-09-28T16:50:30.921Z,16.90
2017-09-28T16:52:58.380Z,14.53
2017-09-28T16:55:25.874Z,15.23
2017-09-28T16:57:53.343Z,15.53
2017-09-28T17:00:20.826Z,14.90
2017-09-28T17:02:48.292Z,18.00
2017-09-28T17:05:15.758Z,15.40
2017-09-28T17:07:43.235Z,15.77
2017-09-28T17:10:10.812Z,16.80
2017-09-28T17:12:38.294Z,21.20
2017-09-28T17:15:05.775Z,15.60
2017-09-28T17:17:33.239Z,16.30
2017-09-28T17:20:00.731Z,15.00
2017-09-28T17:22:28.201Z,15.57
2017-09-28T17:24:55.691Z,15.03
2017-09-28T17:27:23.166Z,15.80
2017-09-28T17:29:50.630Z,15.53
2017-09-28T17:32:18.114Z,17.00
2017-09-28T17:34:45.598Z,17.80
2017-09-28T17:37:13.055Z,15.37
2017-09-28T17:39:40.542Z,15.33
2017-09-28T17:42:07.994Z,16.70
2017-09-28T17:44:35.463Z,16.10
2017-09-28T17:47:02.943Z,15.63
2017-09-28T17:49:30.417Z,15.30
2017-09-28T17:51:57.874Z,14.93
2017-09-28T17:54:25.359Z,16.00
2017-09-28T17:56:52.823Z,15.77
2017-09-28T17:59:20.306Z,14.90
2017-09-28T18:01:47.772Z,14.87
2017-09-28T18:04:15.251Z,16.37
2017-09-28T18:06:42.739Z,14.20
2017-09-28T18:09:10.205Z,16.37
2017-09-28T18:11:37.674Z,16.87
2017-09-28T18:14:05.163Z,18.33
2017-09-28T18:16:32.622Z,17.80
2017-09-28T18:19:00.935Z,17.70
2017-09-28T18:21:28.427Z,16.77
2017-09-28T18:23:55.890Z,16.63
2017-09-28T18:26:23.355Z,16.97
2017-09-28T18:28:50.846Z,21.63
2017-09-28T18:31:18.461Z,17.90
2017-09-28T18:33:46.035Z,17.87
2017-09-28T18:36:13.526Z,18.10
2017-09-28T18:38:41.002Z,17.20
2017-09-28T18:41:08.495Z,16.93
2017-09-28T18:43:35.995Z,18.03
2017-09-28T18:46:03.482Z,16.70
2017-09-28T18:48:30.999Z,17.03
2017-09-28T18:50:58.496Z,17.00
2017-09-28T18:53:26.002Z,15.83
2017-09-28T18:55:53.473Z,16.83
2017-09-28T18:58:20.981Z,18.57
2017-09-28T19:00:48.573Z,16.90
2017-09-28T19:03:16.115Z,17.83
2017-09-28T19:05:43.787Z,17.50
2017-09-28T19:08:11.350Z,18.67
2017-09-28T19:10:38.914Z,20.53
2017-09-28T19:13:06.416Z,19.60
2017-09-28T19:15:34.215Z,18.53
2017-09-28T19:18:01.740Z,18.30
2017-09-28T19:20:29.299Z,17.20
2017-09-28T19:22:56.867Z,18.60
2017-09-28T19:25:24.462Z,18.20
2017-09-28T19:27:52.264Z,18.07
2017-09-28T19:30:19.861Z,18.20
2017-09-28T19:32:47.622Z,18.77
2017-09-28T19:35:15.259Z,17.30
2017-09-28T19:37:44.158Z,18.50
2017-09-28T19:40:14.933Z,18.40
2017-09-28T19:42:42.461Z,18.20
2017-09-28T19:45:20.610Z,18.73
2017-09-28T19:47:48.865Z,21.23
2017-09-28T19:50:16.506Z,21.67
2017-09-28T19:52:44.390Z,22.50
2017-09-28T19:55:12.390Z,19.20
2017-09-28T19:57:39.974Z,21.97
2017-09-28T20:00:07.486Z,20.17
2017-09-28T20:02:35.015Z,19.73
2017-09-28T20:05:02.492Z,18.10
2017-09-28T20:07:29.975Z,18.13
2017-09-28T20:09:57.456Z,19.20
2017-09-28T20:12:24.931Z,18.30
2017-09-28T20:14:52.424Z,19.53
2017-09-28T20:17:19.887Z,18.03
2017-09-28T20:19:47.379Z,18.30
2017-09-28T20:22:14.838Z,19.33
2017-09-28T20:24:42.295Z,20.00
2017-09-28T20:27:09.796Z,18.07
2017-09-28T20:29:37.290Z,18.93
2017-09-28T20:32:04.772Z,19.33
2017-09-28T20:34:32.251Z,17.50
2017-09-28T20:36:59.743Z,19.63
2017-09-28T20:39:27.276Z,19.60
2017-09-28T20:41:54.788Z,18.83
2017-09-28T20:44:22.275Z,20.07
2017-09-28T20:46:49.772Z,18.80
2017-09-28T20:49:17.256Z,19.20
2017-09-28T20:51:44.749Z,19.63
2017-09-28T20:54:12.252Z,18.13
2017-09-28T20:56:39.741Z,20.93
2017-09-28T20:59:07.246Z,18.60
2017-09-28T21:01:34.742Z,19.00
2017-09-28T21:04:02.221Z,19.57
2017-09-28T21:06:29.706Z,18.90
2017-09-28T21:08:57.186Z,18.93
2017-09-28T21:11:24.669Z,17.80
2017-09-28T21:13:52.180Z,19.37
2017-09-28T21:16:19.666Z,18.90
2017-09-28T21:18:47.175Z,18.40
2017-09-28T21:21:14.682Z,20.00
2017-09-28T21:23:42.150Z,19.30
2017-09-28T21:26:09.630Z,17.43
2017-09-28T21:28:37.163Z,18.73
2017-09-28T21:31:04.631Z,18.57
2017-09-28T21:33:32.110Z,19.67
2017-09-28T21:35:59.623Z,18.73
2017-09-28T21:38:27.107Z,18.90
2017-09-28T21:40:54.606Z,18.10
2017-09-28T21:43:22.086Z,18.83
2017-09-28T21:45:49.562Z,18.73
2017-09-28T21:48:17.060Z,19.17
2017-09-28T21:50:44.538Z,21.30
2017-09-28T21:53:12.003Z,19.10
2017-09-28T21:55:39.510Z,19.03
2017-09-28T21:58:06.971Z,20.43
2017-09-28T22:00:34.515Z,18.90
2017-09-28T22:03:01.989Z,20.03
2017-09-28T22:05:29.466Z,19.13
2017-09-28T22:07:56.958Z,21.20
2017-09-28T22:10:24.414Z,18.37
2017-09-28T22:12:51.918Z,21.23
2017-09-28T22:15:19.382Z,18.90
2017-09-28T22:17:46.839Z,21.37
2017-09-28T22:20:14.329Z,20.40
2017-09-28T22:22:41.811Z,20.90
2017-09-28T22:25:09.266Z,20.23
2017-09-28T22:27:36.749Z,21.47
2017-09-28T22:30:04.208Z,20.60
2017-09-28T22:32:31.699Z,18.63
2017-09-28T22:34:59.195Z,19.43
2017-09-28T22:37:26.658Z,18.70
2017-09-28T22:39:54.148Z,20.83
2017-09-28T22:42:21.603Z,23.00
2017-09-28T22:44:49.079Z,21.40
2017-09-28T22:47:16.562Z,24.90
2017-09-28T22:49:44.031Z,26.10
2017-09-28T22:52:11.518Z,24.80
2017-09-28T22:54:39.008Z,30.70
2017-09-28T22:57:06.470Z,30.40
2017-09-28T22:59:33.954Z,31.00
2017-09-28T23:02:01.410Z,27.20
2017-09-28T23:04:28.898Z,27.07
2017-09-28T23:06:57.608Z,27.13
2017-09-28T23:09:25.122Z,25.93
2017-09-28T23:11:52.615Z,25.00
2017-09-28T23:14:20.126Z,25.30
2017-09-28T23:16:47.627Z,27.33
2017-09-28T23:19:15.115Z,30.03
2017-09-28T23:21:42.612Z,30.90
2017-09-28T23:24:10.096Z,37.90
2017-09-28T23:26:37.582Z,39.47
2017-09-28T23:29:05.066Z,35.30
2017-09-28T23:31:32.544Z,32.20
2017-09-28T23:34:00.035Z,28.37
2017-09-28T23:36:27.501Z,28.20
2017-09-28T23:38:54.966Z,27.37
2017-09-28T23:41:22.446Z,26.87
2017-09-28T23:43:49.919Z,27.03
2017-09-28T23:46:17.375Z,26.53
2017-09-28T23:48:44.851Z,26.40
2017-09-28T23:51:12.311Z,26.87
2017-09-28T23:53:39.778Z,27.30
2017-09-28T23:56:07.272Z,27.10
2017-09-28T23:58:34.734Z,29.77
